»·PEaware :: AAL2256 KIAH-KDFW

AAL2256 :: KIAH-KDFW

FLIGHT INFORMATION

Flight Status: Arrived
Operator:
American Airlines
More flights by this operator :: More flights under this callsign
Pilot: Drew L. (13237)
Aircraft: BOEING 737-800
(B738)
More flights by this aircraft type
Origin: KIAH G Bush Intercontinental/Houst
United States
Destination: KDFW Dallas-Ft Worth Intl
United States
More flights between these airports :: More routes between these airports
Route: BLTWY3 CRIED BEREE1
File this flight plan on PilotEdge
Remarks:
Altitude:
(Current/Filed)
30,000ft
Speed:
(Current/Filed)
436kts
Departed: 05-Mar-17 12:25 PM
Arrived: 05-Mar-17 01:08 PM
Distance/Time
Traveled:
196nm/0:43
Distance/Time
To Go:
Arrived

Flight Plot

Page will automatically refresh every two minutes.

Flight plan parsing failed; only flown route is shown


Map Options




Map Legend


Flown Route
Filed Route
Departure Airport
Arrival Airport
Navaid (VOR, NDB)
Fix

Horizontal Profiles

Position Reports

Time Latitude Longitude Heading Altitude Ground
Speed
05-Mar-17 12:15 29.985418 -95.351956 58 105ft 0kts
05-Mar-17 12:16 29.985418 -95.351956 58 105ft 0kts
05-Mar-17 12:17 29.985418 -95.351956 58 105ft 0kts
05-Mar-17 12:18 29.985418 -95.351956 58 105ft 0kts
05-Mar-17 12:19 29.985418 -95.351956 58 105ft 0kts
05-Mar-17 12:20 29.985414 -95.351964 58 105ft 0kts
05-Mar-17 12:21 29.985044 -95.352649 57 105ft 0kts
05-Mar-17 12:22 29.985044 -95.352649 57 105ft 0kts
05-Mar-17 12:23 29.985044 -95.352649 57 105ft 0kts
05-Mar-17 12:24 29.986461 -95.353664 333 105ft 16kts
05-Mar-17 12:25 29.988812 -95.355439 270 105ft 17kts
05-Mar-17 12:26 29.979562 -95.352782 152 110ft 137kts
05-Mar-17 12:27 29.940761 -95.327677 132 3521ft 171kts
05-Mar-17 12:28 29.970345 -95.280342 28 6580ft 230kts
05-Mar-17 12:29 30.039602 -95.293845 338 8962ft 293kts
05-Mar-17 12:30 30.120982 -95.324137 338 12074ft 331kts
05-Mar-17 12:31 30.216906 -95.360001 339 14453ft 378kts
05-Mar-17 12:32 30.318847 -95.398216 338 17532ft 392kts
05-Mar-17 12:33 30.424075 -95.437880 338 20353ft 403kts
05-Mar-17 12:34 30.532627 -95.475366 345 22839ft 415kts
05-Mar-17 12:35 30.647565 -95.500565 345 24970ft 424kts
05-Mar-17 12:36 30.764169 -95.526961 345 26897ft 431kts
05-Mar-17 12:37 30.882738 -95.553891 345 28569ft 438kts
05-Mar-17 12:38 31.000898 -95.580732 345 30222ft 433kts
05-Mar-17 12:39 31.118523 -95.607472 345 30238ft 427kts
05-Mar-17 12:40 31.235036 -95.634125 345 30242ft 427kts
05-Mar-17 12:41 31.350163 -95.665544 335 30244ft 422kts
05-Mar-17 12:42 31.452248 -95.731569 326 30235ft 419kts
05-Mar-17 12:43 31.551732 -95.802566 326 30228ft 418kts
05-Mar-17 12:44 31.651353 -95.873592 326 30217ft 418kts
05-Mar-17 12:45 31.747142 -95.942391 326 30216ft 417kts
05-Mar-17 12:46 31.845886 -96.013515 327 30214ft 417kts
05-Mar-17 12:47 31.944066 -96.084415 326 29275ft 408kts
05-Mar-17 12:48 32.039806 -96.153532 326 26776ft 402kts
05-Mar-17 12:49 32.134296 -96.221895 326 24324ft 395kts
05-Mar-17 12:50 32.225587 -96.288223 325 22768ft 388kts
05-Mar-17 12:51 32.309237 -96.361758 313 21113ft 366kts
05-Mar-17 12:52 32.381484 -96.445226 312 19132ft 359kts
05-Mar-17 12:53 32.452653 -96.527373 312 17076ft 357kts
05-Mar-17 12:54 32.521493 -96.606482 312 15794ft 337kts
05-Mar-17 12:55 32.588561 -96.682942 313 14144ft 333kts
05-Mar-17 12:56 32.653791 -96.756508 313 13241ft 308kts
05-Mar-17 12:57 32.715230 -96.826080 313 12166ft 299kts
05-Mar-17 12:58 32.773165 -96.891987 312 11564ft 269kts
05-Mar-17 12:59 32.836935 -96.914822 357 11156ft 235kts
05-Mar-17 13:00 32.905823 -96.914300 357 9857ft 251kts
05-Mar-17 13:01 32.975452 -96.913831 357 9167ft 248kts
05-Mar-17 13:02 33.040548 -96.913406 357 8509ft 225kts
05-Mar-17 13:03 33.091328 -96.931901 272 7613ft 176kts
05-Mar-17 13:04 33.072417 -96.976254 229 6471ft 144kts
05-Mar-17 13:05 33.047920 -97.014396 227 4730ft 156kts
05-Mar-17 13:06 33.004973 -97.025438 178 2409ft 169kts
05-Mar-17 13:07 32.964631 -97.025613 177 1555ft 124kts
05-Mar-17 13:08 32.929630 -97.025802 177 908ft 126kts
05-Mar-17 13:09 32.901993 -97.025936 180 615ft 26kts
05-Mar-17 13:10 32.897528 -97.028102 262 615ft 11kts
05-Mar-17 13:11 32.899082 -97.031848 1 615ft 27kts
05-Mar-17 13:12 32.901097 -97.035415 270 615ft 20kts
05-Mar-17 13:13 32.901149 -97.038627 280 615ft 2kts
05-Mar-17 13:14 32.901640 -97.038747 1 615ft 0kts
05-Mar-17 13:15 32.901640 -97.038747 1 615ft 0kts
05-Mar-17 13:16 32.901640 -97.038747 1 615ft 0kts
05-Mar-17 13:17 32.901640 -97.038747 1 615ft 0kts

Navigation Log

Ident Type
Flight plan parsing failed, navigation log unavailable